sensor_id;sensor_type;location;lat;lon;timestamp;P1;durP1;ratioP1;P2;durP2;ratioP2
61899;SDS011;47853;55.890;37.664;2023-02-18T00:01:56;34.55;;;17.98;;
61899;SDS011;47853;55.890;37.664;2023-02-18T00:04:21;25.40;;;12.32;;
61899;SDS011;47853;55.890;37.664;2023-02-18T00:06:46;14.82;;;9.00;;
61899;SDS011;47853;55.890;37.664;2023-02-18T00:09:12;25.13;;;11.02;;
61899;SDS011;47853;55.890;37.664;2023-02-18T00:11:37;26.83;;;14.05;;
61899;SDS011;47853;55.890;37.664;2023-02-18T00:14:04;29.42;;;16.20;;
61899;SDS011;47853;55.890;37.664;2023-02-18T00:16:29;30.67;;;14.65;;
61899;SDS011;47853;55.890;37.664;2023-02-18T00:18:59;17.30;;;10.63;;
61899;SDS011;47853;55.890;37.664;2023-02-18T00:21:25;28.85;;;14.52;;
61899;SDS011;47853;55.890;37.664;2023-02-18T00:23:50;30.90;;;13.18;;
61899;SDS011;47853;55.890;37.664;2023-02-18T00:26:16;29.52;;;15.10;;
61899;SDS011;47853;55.890;37.664;2023-02-18T00:28:42;31.60;;;15.18;;
61899;SDS011;47853;55.890;37.664;2023-02-18T00:31:08;34.13;;;15.95;;
61899;SDS011;47853;55.890;37.664;2023-02-18T00:33:33;28.77;;;12.65;;
61899;SDS011;47853;55.890;37.664;2023-02-18T00:36:06;25.83;;;13.32;;
61899;SDS011;47853;55.890;37.664;2023-02-18T00:38:32;22.52;;;12.48;;
61899;SDS011;47853;55.890;37.664;2023-02-18T00:40:57;26.95;;;13.82;;
61899;SDS011;47853;55.890;37.664;2023-02-18T00:43:22;32.67;;;16.52;;
61899;SDS011;47853;55.890;37.664;2023-02-18T00:45:48;27.17;;;13.25;;
61899;SDS011;47853;55.890;37.664;2023-02-18T00:48:13;26.42;;;13.23;;
61899;SDS011;47853;55.890;37.664;2023-02-18T00:50:38;29.75;;;14.60;;
61899;SDS011;47853;55.890;37.664;2023-02-18T00:53:03;34.47;;;16.13;;
61899;SDS011;47853;55.890;37.664;2023-02-18T00:55:30;23.42;;;11.00;;
61899;SDS011;47853;55.890;37.664;2023-02-18T00:57:55;15.73;;;9.05;;
61899;SDS011;47853;55.890;37.664;2023-02-18T01:00:20;20.70;;;10.48;;
61899;SDS011;47853;55.890;37.664;2023-02-18T01:02:45;21.70;;;11.18;;
61899;SDS011;47853;55.890;37.664;2023-02-18T01:05:10;31.52;;;12.45;;
61899;SDS011;47853;55.890;37.664;2023-02-18T01:07:36;27.92;;;14.65;;
61899;SDS011;47853;55.890;37.664;2023-02-18T01:10:01;26.40;;;12.25;;
61899;SDS011;47853;55.890;37.664;2023-02-18T01:12:26;28.80;;;15.80;;
61899;SDS011;47853;55.890;37.664;2023-02-18T01:14:52;19.15;;;9.18;;
61899;SDS011;47853;55.890;37.664;2023-02-18T01:17:17;34.22;;;17.88;;
61899;SDS011;47853;55.890;37.664;2023-02-18T01:19:42;21.42;;;10.93;;
61899;SDS011;47853;55.890;37.664;2023-02-18T01:22:07;32.85;;;17.55;;
61899;SDS011;47853;55.890;37.664;2023-02-18T01:24:32;35.78;;;15.02;;
61899;SDS011;47853;55.890;37.664;2023-02-18T01:26:57;33.92;;;15.52;;
61899;SDS011;47853;55.890;37.664;2023-02-18T01:29:23;26.73;;;13.75;;
61899;SDS011;47853;55.890;37.664;2023-02-18T01:31:48;31.70;;;15.32;;
61899;SDS011;47853;55.890;37.664;2023-02-18T01:34:13;28.50;;;14.35;;
61899;SDS011;47853;55.890;37.664;2023-02-18T01:36:38;32.67;;;16.52;;
61899;SDS011;47853;55.890;37.664;2023-02-18T01:39:04;32.72;;;17.00;;
61899;SDS011;47853;55.890;37.664;2023-02-18T01:41:29;30.25;;;15.77;;
61899;SDS011;47853;55.890;37.664;2023-02-18T01:46:34;24.63;;;13.98;;
61899;SDS011;47853;55.890;37.664;2023-02-18T01:49:00;30.10;;;15.75;;
61899;SDS011;47853;55.890;37.664;2023-02-18T01:56:18;34.82;;;13.96;;
61899;SDS011;47853;55.890;37.664;2023-02-18T01:58:44;29.40;;;16.08;;
61899;SDS011;47853;55.890;37.664;2023-02-18T02:01:09;11.63;;;6.97;;
61899;SDS011;47853;55.890;37.664;2023-02-18T02:03:35;25.60;;;13.20;;
61899;SDS011;47853;55.890;37.664;2023-02-18T02:06:00;22.33;;;12.98;;
61899;SDS011;47853;55.890;37.664;2023-02-18T02:08:25;27.55;;;13.15;;
61899;SDS011;47853;55.890;37.664;2023-02-18T02:15:52;29.30;;;13.88;;
61899;SDS011;47853;55.890;37.664;2023-02-18T02:31:10;19.52;;;9.90;;
61899;SDS011;47853;55.890;37.664;2023-02-18T02:33:51;23.75;;;12.20;;
61899;SDS011;47853;55.890;37.664;2023-02-18T02:36:26;21.70;;;10.55;;
61899;SDS011;47853;55.890;37.664;2023-02-18T02:46:44;26.36;;;14.18;;
61899;SDS011;47853;55.890;37.664;2023-02-18T02:56:44;25.13;;;12.18;;
61899;SDS011;47853;55.890;37.664;2023-02-18T02:59:10;23.80;;;10.95;;
61899;SDS011;47853;55.890;37.664;2023-02-18T03:01:44;25.85;;;12.95;;
61899;SDS011;47853;55.890;37.664;2023-02-18T03:09:54;28.67;;;13.27;;
61899;SDS011;47853;55.890;37.664;2023-02-18T03:17:29;29.80;;;14.75;;
61899;SDS011;47853;55.890;37.664;2023-02-18T03:20:06;18.98;;;9.93;;
61899;SDS011;47853;55.890;37.664;2023-02-18T03:22:36;18.05;;;9.32;;
61899;SDS011;47853;55.890;37.664;2023-02-18T03:25:03;16.13;;;8.50;;
61899;SDS011;47853;55.890;37.664;2023-02-18T03:27:29;25.70;;;10.93;;
61899;SDS011;47853;55.890;37.664;2023-02-18T03:29:56;27.38;;;15.13;;
61899;SDS011;47853;55.890;37.664;2023-02-18T03:32:24;29.33;;;15.02;;
61899;SDS011;47853;55.890;37.664;2023-02-18T03:34:52;22.88;;;10.77;;
61899;SDS011;47853;55.890;37.664;2023-02-18T03:37:18;34.50;;;14.00;;
61899;SDS011;47853;55.890;37.664;2023-02-18T03:39:45;40.28;;;18.08;;
61899;SDS011;47853;55.890;37.664;2023-02-18T03:42:10;24.77;;;13.98;;
61899;SDS011;47853;55.890;37.664;2023-02-18T03:44:36;24.90;;;13.48;;
61899;SDS011;47853;55.890;37.664;2023-02-18T03:47:01;32.10;;;17.63;;
61899;SDS011;47853;55.890;37.664;2023-02-18T03:49:26;27.90;;;13.20;;
61899;SDS011;47853;55.890;37.664;2023-02-18T03:51:51;35.35;;;15.70;;
61899;SDS011;47853;55.890;37.664;2023-02-18T03:54:17;22.08;;;13.02;;
61899;SDS011;47853;55.890;37.664;2023-02-18T03:56:42;55.75;;;22.27;;
61899;SDS011;47853;55.890;37.664;2023-02-18T03:59:08;39.30;;;15.30;;
61899;SDS011;47853;55.890;37.664;2023-02-18T04:01:33;39.80;;;16.00;;
61899;SDS011;47853;55.890;37.664;2023-02-18T04:03:58;30.48;;;15.00;;
61899;SDS011;47853;55.890;37.664;2023-02-18T04:06:23;49.45;;;21.88;;
61899;SDS011;47853;55.890;37.664;2023-02-18T04:08:48;49.20;;;20.85;;
61899;SDS011;47853;55.890;37.664;2023-02-18T04:11:14;50.13;;;21.85;;
61899;SDS011;47853;55.890;37.664;2023-02-18T04:13:39;24.23;;;11.45;;
61899;SDS011;47853;55.890;37.664;2023-02-18T04:16:04;47.63;;;20.20;;
61899;SDS011;47853;55.890;37.664;2023-02-18T04:18:30;37.28;;;18.00;;
61899;SDS011;47853;55.890;37.664;2023-02-18T04:20:57;36.75;;;17.20;;
61899;SDS011;47853;55.890;37.664;2023-02-18T04:23:22;45.35;;;20.50;;
61899;SDS011;47853;55.890;37.664;2023-02-18T04:25:48;50.38;;;19.23;;
61899;SDS011;47853;55.890;37.664;2023-02-18T04:28:13;53.20;;;22.20;;
61899;SDS011;47853;55.890;37.664;2023-02-18T04:30:39;30.33;;;14.90;;
61899;SDS011;47853;55.890;37.664;2023-02-18T04:33:04;25.30;;;13.82;;
61899;SDS011;47853;55.890;37.664;2023-02-18T04:35:29;35.25;;;17.25;;
61899;SDS011;47853;55.890;37.664;2023-02-18T04:37:54;31.25;;;14.75;;
61899;SDS011;47853;55.890;37.664;2023-02-18T04:40:19;34.85;;;17.40;;
61899;SDS011;47853;55.890;37.664;2023-02-18T04:42:44;32.80;;;16.75;;
61899;SDS011;47853;55.890;37.664;2023-02-18T04:45:09;39.88;;;17.80;;
61899;SDS011;47853;55.890;37.664;2023-02-18T04:47:35;36.22;;;17.17;;
61899;SDS011;47853;55.890;37.664;2023-02-18T04:50:00;37.85;;;15.57;;
61899;SDS011;47853;55.890;37.664;2023-02-18T04:52:25;35.78;;;18.20;;
61899;SDS011;47853;55.890;37.664;2023-02-18T04:54:50;40.97;;;19.95;;
61899;SDS011;47853;55.890;37.664;2023-02-18T04:57:15;32.13;;;16.40;;
61899;SDS011;47853;55.890;37.664;2023-02-18T04:59:41;34.30;;;17.77;;
61899;SDS011;47853;55.890;37.664;2023-02-18T05:02:06;33.15;;;16.83;;
61899;SDS011;47853;55.890;37.664;2023-02-18T05:04:31;24.25;;;12.68;;
61899;SDS011;47853;55.890;37.664;2023-02-18T05:06:56;37.50;;;17.63;;
61899;SDS011;47853;55.890;37.664;2023-02-18T05:09:21;31.33;;;16.30;;
61899;SDS011;47853;55.890;37.664;2023-02-18T05:11:47;35.65;;;15.73;;
61899;SDS011;47853;55.890;37.664;2023-02-18T05:14:12;36.67;;;18.25;;
61899;SDS011;47853;55.890;37.664;2023-02-18T05:16:37;22.73;;;13.15;;
61899;SDS011;47853;55.890;37.664;2023-02-18T05:19:02;41.75;;;18.95;;
61899;SDS011;47853;55.890;37.664;2023-02-18T05:21:28;21.27;;;11.20;;
61899;SDS011;47853;55.890;37.664;2023-02-18T05:23:53;37.10;;;18.52;;
61899;SDS011;47853;55.890;37.664;2023-02-18T05:26:18;38.15;;;17.75;;
61899;SDS011;47853;55.890;37.664;2023-02-18T05:28:43;21.98;;;9.65;;
61899;SDS011;47853;55.890;37.664;2023-02-18T05:31:08;35.08;;;16.33;;
61899;SDS011;47853;55.890;37.664;2023-02-18T05:33:34;29.23;;;15.52;;
61899;SDS011;47853;55.890;37.664;2023-02-18T05:35:59;41.55;;;19.63;;
61899;SDS011;47853;55.890;37.664;2023-02-18T05:38:24;31.67;;;15.27;;
61899;SDS011;47853;55.890;37.664;2023-02-18T05:40:49;33.35;;;17.60;;
61899;SDS011;47853;55.890;37.664;2023-02-18T05:43:14;41.38;;;20.15;;
61899;SDS011;47853;55.890;37.664;2023-02-18T05:45:40;38.97;;;18.08;;
61899;SDS011;47853;55.890;37.664;2023-02-18T05:48:05;39.20;;;19.48;;
61899;SDS011;47853;55.890;37.664;2023-02-18T05:50:30;29.50;;;14.50;;
61899;SDS011;47853;55.890;37.664;2023-02-18T05:52:56;41.05;;;18.63;;
61899;SDS011;47853;55.890;37.664;2023-02-18T05:55:21;30.70;;;14.80;;
61899;SDS011;47853;55.890;37.664;2023-02-18T05:57:46;39.70;;;19.55;;
61899;SDS011;47853;55.890;37.664;2023-02-18T06:00:11;24.02;;;12.18;;
61899;SDS011;47853;55.890;37.664;2023-02-18T06:02:37;48.42;;;21.75;;
61899;SDS011;47853;55.890;37.664;2023-02-18T06:05:02;22.30;;;13.73;;
61899;SDS011;47853;55.890;37.664;2023-02-18T06:07:27;41.53;;;20.27;;
61899;SDS011;47853;55.890;37.664;2023-02-18T06:09:53;38.00;;;19.42;;
61899;SDS011;47853;55.890;37.664;2023-02-18T06:12:18;38.10;;;18.25;;
61899;SDS011;47853;55.890;37.664;2023-02-18T06:14:43;22.27;;;9.95;;
61899;SDS011;47853;55.890;37.664;2023-02-18T06:17:08;28.88;;;14.82;;
61899;SDS011;47853;55.890;37.664;2023-02-18T06:19:34;24.55;;;14.13;;
61899;SDS011;47853;55.890;37.664;2023-02-18T06:21:59;25.70;;;12.60;;
61899;SDS011;47853;55.890;37.664;2023-02-18T06:24:25;17.23;;;9.32;;
61899;SDS011;47853;55.890;37.664;2023-02-18T06:26:50;23.70;;;13.20;;
61899;SDS011;47853;55.890;37.664;2023-02-18T06:29:15;23.63;;;12.00;;
61899;SDS011;47853;55.890;37.664;2023-02-18T06:31:40;17.70;;;8.95;;
61899;SDS011;47853;55.890;37.664;2023-02-18T06:34:05;14.73;;;7.60;;
61899;SDS011;47853;55.890;37.664;2023-02-18T06:36:31;14.30;;;7.35;;
61899;SDS011;47853;55.890;37.664;2023-02-18T06:38:56;19.92;;;9.98;;
61899;SDS011;47853;55.890;37.664;2023-02-18T06:41:21;14.48;;;8.77;;
61899;SDS011;47853;55.890;37.664;2023-02-18T06:43:46;10.63;;;5.95;;
61899;SDS011;47853;55.890;37.664;2023-02-18T06:46:11;16.35;;;8.50;;
61899;SDS011;47853;55.890;37.664;2023-02-18T06:48:36;10.88;;;6.43;;
61899;SDS011;47853;55.890;37.664;2023-02-18T06:51:02;9.73;;;5.63;;
61899;SDS011;47853;55.890;37.664;2023-02-18T06:53:27;11.32;;;5.30;;
61899;SDS011;47853;55.890;37.664;2023-02-18T06:55:52;10.77;;;6.07;;
61899;SDS011;47853;55.890;37.664;2023-02-18T06:58:17;13.05;;;8.18;;
61899;SDS011;47853;55.890;37.664;2023-02-18T07:00:42;11.02;;;8.02;;
61899;SDS011;47853;55.890;37.664;2023-02-18T07:03:09;14.02;;;8.00;;
61899;SDS011;47853;55.890;37.664;2023-02-18T07:05:35;8.95;;;5.50;;
61899;SDS011;47853;55.890;37.664;2023-02-18T07:08:00;10.40;;;7.07;;
61899;SDS011;47853;55.890;37.664;2023-02-18T07:10:25;9.20;;;6.13;;
61899;SDS011;47853;55.890;37.664;2023-02-18T07:12:50;10.63;;;6.35;;
61899;SDS011;47853;55.890;37.664;2023-02-18T07:15:16;7.78;;;5.18;;
61899;SDS011;47853;55.890;37.664;2023-02-18T07:17:41;12.15;;;6.93;;
61899;SDS011;47853;55.890;37.664;2023-02-18T07:20:07;7.85;;;5.45;;
61899;SDS011;47853;55.890;37.664;2023-02-18T07:22:32;9.80;;;5.90;;
61899;SDS011;47853;55.890;37.664;2023-02-18T07:24:57;9.07;;;6.38;;
61899;SDS011;47853;55.890;37.664;2023-02-18T07:27:22;9.73;;;6.43;;
61899;SDS011;47853;55.890;37.664;2023-02-18T07:29:48;5.72;;;4.75;;
61899;SDS011;47853;55.890;37.664;2023-02-18T07:32:14;7.35;;;5.38;;
61899;SDS011;47853;55.890;37.664;2023-02-18T07:34:39;12.50;;;6.45;;
61899;SDS011;47853;55.890;37.664;2023-02-18T07:37:04;9.75;;;7.10;;
61899;SDS011;47853;55.890;37.664;2023-02-18T07:39:29;4.78;;;3.83;;
61899;SDS011;47853;55.890;37.664;2023-02-18T07:41:54;11.32;;;5.85;;
61899;SDS011;47853;55.890;37.664;2023-02-18T07:44:20;9.38;;;5.60;;
61899;SDS011;47853;55.890;37.664;2023-02-18T07:46:45;8.95;;;4.95;;
61899;SDS011;47853;55.890;37.664;2023-02-18T07:49:10;4.88;;;3.58;;
61899;SDS011;47853;55.890;37.664;2023-02-18T07:51:35;6.05;;;4.80;;
61899;SDS011;47853;55.890;37.664;2023-02-18T07:54:00;8.60;;;5.30;;
61899;SDS011;47853;55.890;37.664;2023-02-18T07:56:25;7.05;;;4.75;;
61899;SDS011;47853;55.890;37.664;2023-02-18T07:58:51;7.82;;;5.32;;
61899;SDS011;47853;55.890;37.664;2023-02-18T08:01:16;4.78;;;3.17;;
61899;SDS011;47853;55.890;37.664;2023-02-18T08:03:41;8.38;;;5.43;;
61899;SDS011;47853;55.890;37.664;2023-02-18T08:06:06;13.52;;;8.27;;
61899;SDS011;47853;55.890;37.664;2023-02-18T08:08:32;4.75;;;3.80;;
61899;SDS011;47853;55.890;37.664;2023-02-18T08:11:00;10.15;;;5.72;;
61899;SDS011;47853;55.890;37.664;2023-02-18T08:13:25;6.35;;;4.70;;
61899;SDS011;47853;55.890;37.664;2023-02-18T08:15:54;7.63;;;5.18;;
61899;SDS011;47853;55.890;37.664;2023-02-18T08:18:20;8.75;;;6.22;;
61899;SDS011;47853;55.890;37.664;2023-02-18T08:20:45;13.98;;;7.45;;
61899;SDS011;47853;55.890;37.664;2023-02-18T08:23:11;15.68;;;7.47;;
61899;SDS011;47853;55.890;37.664;2023-02-18T08:25:37;9.73;;;6.05;;
61899;SDS011;47853;55.890;37.664;2023-02-18T08:28:02;8.77;;;6.15;;
61899;SDS011;47853;55.890;37.664;2023-02-18T08:30:27;11.57;;;7.35;;
61899;SDS011;47853;55.890;37.664;2023-02-18T08:32:53;13.10;;;7.43;;
61899;SDS011;47853;55.890;37.664;2023-02-18T08:35:18;13.00;;;8.68;;
61899;SDS011;47853;55.890;37.664;2023-02-18T08:37:43;8.00;;;5.18;;
61899;SDS011;47853;55.890;37.664;2023-02-18T08:40:09;8.10;;;4.38;;
61899;SDS011;47853;55.890;37.664;2023-02-18T08:42:34;11.65;;;7.32;;
61899;SDS011;47853;55.890;37.664;2023-02-18T08:44:59;8.85;;;5.55;;
61899;SDS011;47853;55.890;37.664;2023-02-18T08:47:25;11.60;;;6.63;;
61899;SDS011;47853;55.890;37.664;2023-02-18T08:49:51;8.75;;;4.03;;
61899;SDS011;47853;55.890;37.664;2023-02-18T08:52:16;10.55;;;7.75;;
61899;SDS011;47853;55.890;37.664;2023-02-18T08:54:41;9.73;;;6.55;;
61899;SDS011;47853;55.890;37.664;2023-02-18T08:57:07;12.80;;;7.38;;
61899;SDS011;47853;55.890;37.664;2023-02-18T08:59:32;9.27;;;6.10;;
61899;SDS011;47853;55.890;37.664;2023-02-18T09:01:57;11.90;;;7.90;;
61899;SDS011;47853;55.890;37.664;2023-02-18T09:04:22;10.50;;;6.63;;
61899;SDS011;47853;55.890;37.664;2023-02-18T09:06:50;8.13;;;5.63;;
61899;SDS011;47853;55.890;37.664;2023-02-18T09:09:19;12.15;;;7.72;;
61899;SDS011;47853;55.890;37.664;2023-02-18T09:11:44;8.25;;;5.63;;
61899;SDS011;47853;55.890;37.664;2023-02-18T09:14:09;10.63;;;6.65;;
61899;SDS011;47853;55.890;37.664;2023-02-18T09:16:34;12.98;;;8.13;;
61899;SDS011;47853;55.890;37.664;2023-02-18T09:19:00;10.48;;;5.55;;
61899;SDS011;47853;55.890;37.664;2023-02-18T09:21:25;6.10;;;4.20;;
61899;SDS011;47853;55.890;37.664;2023-02-18T09:23:50;10.90;;;7.20;;
61899;SDS011;47853;55.890;37.664;2023-02-18T09:26:17;8.82;;;6.45;;
61899;SDS011;47853;55.890;37.664;2023-02-18T09:28:52;13.70;;;8.20;;
61899;SDS011;47853;55.890;37.664;2023-02-18T09:31:18;9.65;;;5.97;;
61899;SDS011;47853;55.890;37.664;2023-02-18T09:33:45;8.00;;;4.78;;
61899;SDS011;47853;55.890;37.664;2023-02-18T09:36:10;13.30;;;8.43;;
61899;SDS011;47853;55.890;37.664;2023-02-18T09:38:35;14.48;;;7.30;;
61899;SDS011;47853;55.890;37.664;2023-02-18T09:41:02;9.52;;;6.57;;
61899;SDS011;47853;55.890;37.664;2023-02-18T09:43:29;6.93;;;4.55;;
61899;SDS011;47853;55.890;37.664;2023-02-18T09:45:55;14.23;;;8.65;;
61899;SDS011;47853;55.890;37.664;2023-02-18T09:48:24;10.05;;;6.82;;
61899;SDS011;47853;55.890;37.664;2023-02-18T09:50:50;9.43;;;6.55;;
61899;SDS011;47853;55.890;37.664;2023-02-18T09:53:16;11.07;;;7.80;;
61899;SDS011;47853;55.890;37.664;2023-02-18T09:55:41;6.97;;;4.82;;
61899;SDS011;47853;55.890;37.664;2023-02-18T09:58:18;9.52;;;6.07;;
61899;SDS011;47853;55.890;37.664;2023-02-18T10:00:44;10.60;;;6.45;;
61899;SDS011;47853;55.890;37.664;2023-02-18T10:03:11;12.23;;;6.82;;
61899;SDS011;47853;55.890;37.664;2023-02-18T10:05:40;9.55;;;6.47;;
61899;SDS011;47853;55.890;37.664;2023-02-18T10:08:06;13.43;;;7.43;;
61899;SDS011;47853;55.890;37.664;2023-02-18T10:10:42;6.07;;;4.30;;
61899;SDS011;47853;55.890;37.664;2023-02-18T10:13:40;8.82;;;6.70;;
61899;SDS011;47853;55.890;37.664;2023-02-18T10:15:58;9.75;;;6.38;;
61899;SDS011;47853;55.890;37.664;2023-02-18T10:18:31;8.65;;;5.45;;
61899;SDS011;47853;55.890;37.664;2023-02-18T10:23:28;10.80;;;7.15;;
61899;SDS011;47853;55.890;37.664;2023-02-18T10:25:54;16.15;;;6.10;;
61899;SDS011;47853;55.890;37.664;2023-02-18T10:28:20;8.70;;;5.55;;
61899;SDS011;47853;55.890;37.664;2023-02-18T10:30:51;10.32;;;6.80;;
61899;SDS011;47853;55.890;37.664;2023-02-18T10:48:44;9.00;;;6.04;;
61899;SDS011;47853;55.890;37.664;2023-02-18T10:51:16;9.13;;;6.55;;
61899;SDS011;47853;55.890;37.664;2023-02-18T10:53:42;6.18;;;4.70;;
61899;SDS011;47853;55.890;37.664;2023-02-18T10:56:11;8.52;;;5.78;;
61899;SDS011;47853;55.890;37.664;2023-02-18T10:58:53;4.75;;;4.15;;
61899;SDS011;47853;55.890;37.664;2023-02-18T11:01:24;8.85;;;6.97;;
61899;SDS011;47853;55.890;37.664;2023-02-18T11:03:51;12.07;;;7.25;;
61899;SDS011;47853;55.890;37.664;2023-02-18T11:08:52;9.90;;;6.60;;
61899;SDS011;47853;55.890;37.664;2023-02-18T11:11:25;9.18;;;6.63;;
61899;SDS011;47853;55.890;37.664;2023-02-18T11:13:54;8.68;;;5.30;;
61899;SDS011;47853;55.890;37.664;2023-02-18T11:16:23;9.73;;;6.50;;
61899;SDS011;47853;55.890;37.664;2023-02-18T11:18:59;6.57;;;4.78;;
61899;SDS011;47853;55.890;37.664;2023-02-18T11:21:29;9.63;;;6.97;;
61899;SDS011;47853;55.890;37.664;2023-02-18T11:23:57;11.18;;;7.38;;
61899;SDS011;47853;55.890;37.664;2023-02-18T11:26:36;8.50;;;5.60;;
61899;SDS011;47853;55.890;37.664;2023-02-18T11:29:07;11.20;;;7.30;;
61899;SDS011;47853;55.890;37.664;2023-02-18T11:31:39;10.45;;;5.68;;
61899;SDS011;47853;55.890;37.664;2023-02-18T11:34:05;10.70;;;6.72;;
61899;SDS011;47853;55.890;37.664;2023-02-18T11:36:31;9.05;;;6.72;;
61899;SDS011;47853;55.890;37.664;2023-02-18T11:38:58;11.45;;;7.45;;
61899;SDS011;47853;55.890;37.664;2023-02-18T11:41:29;10.70;;;7.22;;
61899;SDS011;47853;55.890;37.664;2023-02-18T11:43:54;10.25;;;6.85;;
61899;SDS011;47853;55.890;37.664;2023-02-18T11:46:22;8.63;;;5.68;;
61899;SDS011;47853;55.890;37.664;2023-02-18T11:48:47;10.70;;;6.78;;
61899;SDS011;47853;55.890;37.664;2023-02-18T11:51:14;9.32;;;6.22;;
61899;SDS011;47853;55.890;37.664;2023-02-18T11:53:49;19.65;;;11.05;;
61899;SDS011;47853;55.890;37.664;2023-02-18T11:56:20;13.52;;;8.27;;
61899;SDS011;47853;55.890;37.664;2023-02-18T11:58:45;9.02;;;6.68;;
61899;SDS011;47853;55.890;37.664;2023-02-18T12:01:16;11.60;;;7.22;;
61899;SDS011;47853;55.890;37.664;2023-02-18T12:03:54;12.00;;;8.07;;
61899;SDS011;47853;55.890;37.664;2023-02-18T12:06:29;10.93;;;7.38;;
61899;SDS011;47853;55.890;37.664;2023-02-18T12:08:58;10.93;;;7.38;;
61899;SDS011;47853;55.890;37.664;2023-02-18T12:11:59;8.27;;;5.22;;
61899;SDS011;47853;55.890;37.664;2023-02-18T12:14:17;13.05;;;8.35;;
61899;SDS011;47853;55.890;37.664;2023-02-18T12:21:53;9.70;;;4.93;;
61899;SDS011;47853;55.890;37.664;2023-02-18T12:26:51;8.02;;;5.25;;
61899;SDS011;47853;55.890;37.664;2023-02-18T12:29:29;11.60;;;7.00;;
61899;SDS011;47853;55.890;37.664;2023-02-18T12:32:14;7.88;;;5.47;;
61899;SDS011;47853;55.890;37.664;2023-02-18T12:34:48;9.30;;;6.60;;
61899;SDS011;47853;55.890;37.664;2023-02-18T13:14:15;9.00;;;5.78;;
61899;SDS011;47853;55.890;37.664;2023-02-18T13:16:43;11.23;;;7.03;;
61899;SDS011;47853;55.890;37.664;2023-02-18T13:19:32;14.70;;;6.95;;
61899;SDS011;47853;55.890;37.664;2023-02-18T13:21:57;12.25;;;7.75;;
61899;SDS011;47853;55.890;37.664;2023-02-18T13:24:25;13.00;;;8.15;;
61899;SDS011;47853;55.890;37.664;2023-02-18T13:26:52;9.43;;;5.05;;
61899;SDS011;47853;55.890;37.664;2023-02-18T13:29:27;6.22;;;4.82;;
61899;SDS011;47853;55.890;37.664;2023-02-18T13:31:57;12.57;;;6.55;;
61899;SDS011;47853;55.890;37.664;2023-02-18T13:34:33;9.85;;;5.80;;
61899;SDS011;47853;55.890;37.664;2023-02-18T13:37:38;10.45;;;7.18;;
61899;SDS011;47853;55.890;37.664;2023-02-18T13:39:54;6.72;;;4.05;;
61899;SDS011;47853;55.890;37.664;2023-02-18T13:42:24;10.05;;;7.00;;
61899;SDS011;47853;55.890;37.664;2023-02-18T13:52:48;7.90;;;5.07;;
61899;SDS011;47853;55.890;37.664;2023-02-18T13:55:24;8.68;;;5.72;;
61899;SDS011;47853;55.890;37.664;2023-02-18T13:57:54;9.55;;;6.15;;
61899;SDS011;47853;55.890;37.664;2023-02-18T14:00:20;8.25;;;5.78;;
61899;SDS011;47853;55.890;37.664;2023-02-18T14:02:57;14.30;;;7.13;;
61899;SDS011;47853;55.890;37.664;2023-02-18T14:05:25;6.88;;;4.63;;
61899;SDS011;47853;55.890;37.664;2023-02-18T14:08:11;9.95;;;6.03;;
61899;SDS011;47853;55.890;37.664;2023-02-18T14:10:37;7.15;;;5.13;;
61899;SDS011;47853;55.890;37.664;2023-02-18T14:13:17;8.15;;;6.05;;
61899;SDS011;47853;55.890;37.664;2023-02-18T14:25:49;10.82;;;6.75;;
61899;SDS011;47853;55.890;37.664;2023-02-18T14:41:52;13.93;;;8.45;;
61899;SDS011;47853;55.890;37.664;2023-02-18T14:49:51;8.57;;;5.53;;
61899;SDS011;47853;55.890;37.664;2023-02-18T14:52:29;14.18;;;6.28;;
61899;SDS011;47853;55.890;37.664;2023-02-18T14:54:56;9.82;;;6.15;;
61899;SDS011;47853;55.890;37.664;2023-02-18T14:57:26;12.90;;;7.75;;
61899;SDS011;47853;55.890;37.664;2023-02-18T14:59:56;13.07;;;7.00;;
61899;SDS011;47853;55.890;37.664;2023-02-18T15:02:23;6.88;;;4.25;;
61899;SDS011;47853;55.890;37.664;2023-02-18T15:04:48;9.07;;;6.10;;
61899;SDS011;47853;55.890;37.664;2023-02-18T15:07:13;15.40;;;8.07;;
61899;SDS011;47853;55.890;37.664;2023-02-18T15:09:46;8.40;;;5.15;;
61899;SDS011;47853;55.890;37.664;2023-02-18T15:12:28;9.65;;;5.50;;
61899;SDS011;47853;55.890;37.664;2023-02-18T15:14:54;7.30;;;4.22;;
61899;SDS011;47853;55.890;37.664;2023-02-18T15:17:24;8.55;;;6.38;;
61899;SDS011;47853;55.890;37.664;2023-02-18T15:19:51;10.07;;;6.07;;
61899;SDS011;47853;55.890;37.664;2023-02-18T15:22:17;7.70;;;4.50;;
61899;SDS011;47853;55.890;37.664;2023-02-18T15:24:43;5.40;;;2.67;;
61899;SDS011;47853;55.890;37.664;2023-02-18T15:27:22;9.23;;;5.28;;
61899;SDS011;47853;55.890;37.664;2023-02-18T15:29:50;6.47;;;4.65;;
61899;SDS011;47853;55.890;37.664;2023-02-18T15:32:25;7.40;;;5.53;;
61899;SDS011;47853;55.890;37.664;2023-02-18T15:34:52;7.55;;;5.53;;
61899;SDS011;47853;55.890;37.664;2023-02-18T15:37:17;6.63;;;4.65;;
61899;SDS011;47853;55.890;37.664;2023-02-18T15:39:43;6.38;;;4.72;;
61899;SDS011;47853;55.890;37.664;2023-02-18T15:47:41;7.22;;;4.93;;
61899;SDS011;47853;55.890;37.664;2023-02-18T15:50:50;11.15;;;4.80;;
61899;SDS011;47853;55.890;37.664;2023-02-18T15:52:57;7.22;;;4.68;;
61899;SDS011;47853;55.890;37.664;2023-02-18T15:55:34;7.55;;;3.55;;
61899;SDS011;47853;55.890;37.664;2023-02-18T15:58:00;6.90;;;4.35;;
61899;SDS011;47853;55.890;37.664;2023-02-18T16:00:27;6.47;;;3.60;;
61899;SDS011;47853;55.890;37.664;2023-02-18T16:02:54;9.77;;;6.28;;
61899;SDS011;47853;55.890;37.664;2023-02-18T16:05:23;6.55;;;4.20;;
61899;SDS011;47853;55.890;37.664;2023-02-18T16:07:50;8.85;;;4.25;;
61899;SDS011;47853;55.890;37.664;2023-02-18T16:12:51;8.18;;;5.45;;
61899;SDS011;47853;55.890;37.664;2023-02-18T16:15:24;6.93;;;5.07;;
61899;SDS011;47853;55.890;37.664;2023-02-18T16:17:50;10.48;;;5.00;;
61899;SDS011;47853;55.890;37.664;2023-02-18T16:22:44;7.47;;;3.90;;
61899;SDS011;47853;55.890;37.664;2023-02-18T16:25:20;9.20;;;5.30;;
61899;SDS011;47853;55.890;37.664;2023-02-18T16:28:02;11.55;;;7.80;;
61899;SDS011;47853;55.890;37.664;2023-02-18T16:30:33;9.98;;;6.45;;
61899;SDS011;47853;55.890;37.664;2023-02-18T16:32:58;6.68;;;5.25;;
61899;SDS011;47853;55.890;37.664;2023-02-18T16:35:24;12.63;;;6.88;;
61899;SDS011;47853;55.890;37.664;2023-02-18T16:37:57;13.32;;;7.47;;
61899;SDS011;47853;55.890;37.664;2023-02-18T16:42:54;9.35;;;6.25;;
61899;SDS011;47853;55.890;37.664;2023-02-18T16:45:25;10.38;;;6.72;;
61899;SDS011;47853;55.890;37.664;2023-02-18T16:47:54;9.73;;;6.22;;
61899;SDS011;47853;55.890;37.664;2023-02-18T16:50:20;12.80;;;8.63;;
61899;SDS011;47853;55.890;37.664;2023-02-18T16:52:46;14.90;;;8.80;;
61899;SDS011;47853;55.890;37.664;2023-02-18T16:55:16;15.70;;;8.07;;
61899;SDS011;47853;55.890;37.664;2023-02-18T16:57:44;16.40;;;9.23;;
61899;SDS011;47853;55.890;37.664;2023-02-18T17:00:10;9.50;;;5.70;;
61899;SDS011;47853;55.890;37.664;2023-02-18T17:02:35;13.25;;;6.95;;
61899;SDS011;47853;55.890;37.664;2023-02-18T17:05:00;7.60;;;5.28;;
61899;SDS011;47853;55.890;37.664;2023-02-18T17:07:26;10.38;;;6.65;;
61899;SDS011;47853;55.890;37.664;2023-02-18T17:09:54;11.20;;;7.38;;